Ridgeview, WV (25169)

9:48 AM EDT en Octubre 22, 2014 (GMT -0400)
SOD | Change Station
CLOSE
Current Station
Estación meteorológica personal
Location: Sod, WV
Altura: 771 ft
Estaciones meteorológicas cercanas

Alt 771 ft 38.27 °N, 81.89 °W | Updated 3 seconds ago

Nublado
Nublado
46.4 ° F
Sensación térmica 46 ° F
N
1.0
Viento Variable Viento desde Oeste
Gusts 4.0 mph

Hoy
Alta -- | Baja -- ° F
--% Posibilidad de precipitaciones
Ayer
Alta -- | Baja -- ° F
Precip. -- pul
7:42 AM 6:39 PM
Creciente menguante, 2% visible
Presión 30.18 pul
Visibilidad 10.0 Millas
Nubes Baja 100 ft
Nublado 1000 ft
Vientos helados 46 ° F
Punto de rocío 44 ° F
Humedad 91%
Precipitaciones 0.00 pul
Espesor de la nieve No disponible.
UV 0 de una escala de 12
Polen .40 de una escala de 12
Calidad del aire No disponible.
Flu Activity Sporadic
METAR KCRW 221254Z 30005KT 10SM FEW001 OVC010 08/06 A3018 RMK AO2 DZE47 SLP220 P0000 T00780061

More Conditions Fewer Conditions

Presión 30.18 pul
Visibilidad 10.0 Millas
Nubes Baja 100 ft
Nublado 1000 ft
Vientos helados 46 ° F
Punto de rocío 44 ° F
Humedad 91%
Precipitaciones 0.00 pul
Espesor de la nieve No disponible.
UV 0 de una escala de 12
Polen .40 de una escala de 12
Calidad del aire No disponible.
Flu Activity Sporadic
METAR KCRW 221254Z 30005KT 10SM FEW001 OVC010 08/06 A3018 RMK AO2 DZE47 SLP220 P0000 T00780061

More Conditions Fewer Conditions

10-Day Weather Forecast

Almanac

Astronomía

Oct. 22, 2014 Salida Puesta
Hora real 7:42 AM EDT 6:39 PM EDT
Crepúsculo civil 7:15 AM EDT 7:06 PM EDT
Crepúsculo náutico 6:45 AM EDT 7:37 PM EDT
Crepúsculo astronómico 6:14 AM EDT 8:07 PM EDT
Luna 6:23 AM EDT 6:04 PM EDT
Horas de luz 11h 50m
Horas de luz
10h 57m
Tomorrow will be 2m 17s shorter.
Creciente menguante, 2% of the Moon is Illuminated
Hoy
Creciente menguante
Oct 23
Nueva
Oct 30
Cuarto creciente
Nov 6
Luna llena
Nov 14
Cuarto menguante

Extremos de hoy

Máximos del estado Bajos del estado

Community

WunderPhotos

Upload Photos

1,763,919 ¡fotos cargadas!

Nearby

Grosos de nieve

Estación Profundido Altura
No tenemos constancia de nieve nueva.

Actividad de terremotos

Ciudad Distance Mag. Tiempo y dato
No hay informes recientes de la actividad sísmica.
Magnitud mínima muestra es 2,5.

Temperaturas de aguas costeras

Lugar Temperatura
Sin partes meteorológicos de las estaciones

Estaciones meteorológicas cercanas